sensor_id;sensor_type;location;lat;lon;timestamp;temperature;humidity
18287;DHT22;9269;50.838;12.094;2023-01-01T00:01:57;16.50;56.90
18287;DHT22;9269;50.838;12.094;2023-01-01T00:04:32;16.50;56.50
18287;DHT22;9269;50.838;12.094;2023-01-01T00:07:17;16.60;56.60
18287;DHT22;9269;50.838;12.094;2023-01-01T00:09:49;16.60;56.50
18287;DHT22;9269;50.838;12.094;2023-01-01T00:12:42;16.60;56.80
18287;DHT22;9269;50.838;12.094;2023-01-01T00:15:16;16.50;56.80
18287;DHT22;9269;50.838;12.094;2023-01-01T00:18:00;16.60;56.50
18287;DHT22;9269;50.838;12.094;2023-01-01T00:20:47;16.60;56.20
18287;DHT22;9269;50.838;12.094;2023-01-01T00:23:30;16.60;56.60
18287;DHT22;9269;50.838;12.094;2023-01-01T00:26:23;16.50;56.40
18287;DHT22;9269;50.838;12.094;2023-01-01T00:29:18;16.50;56.20
18287;DHT22;9269;50.838;12.094;2023-01-01T00:32:17;16.60;55.90
18287;DHT22;9269;50.838;12.094;2023-01-01T00:35:21;16.50;56.40
18287;DHT22;9269;50.838;12.094;2023-01-01T00:38:21;16.50;56.40
18287;DHT22;9269;50.838;12.094;2023-01-01T00:41:13;16.40;56.70
18287;DHT22;9269;50.838;12.094;2023-01-01T00:44:03;16.40;56.90
18287;DHT22;9269;50.838;12.094;2023-01-01T00:49:40;16.40;56.70
18287;DHT22;9269;50.838;12.094;2023-01-01T00:52:33;16.40;56.90
18287;DHT22;9269;50.838;12.094;2023-01-01T00:55:26;16.40;56.30
18287;DHT22;9269;50.838;12.094;2023-01-01T00:58:23;16.50;56.20
18287;DHT22;9269;50.838;12.094;2023-01-01T01:01:07;16.40;56.40
18287;DHT22;9269;50.838;12.094;2023-01-01T01:03:55;16.40;56.30
18287;DHT22;9269;50.838;12.094;2023-01-01T01:06:46;16.40;55.90
18287;DHT22;9269;50.838;12.094;2023-01-01T01:09:49;16.40;56.30
18287;DHT22;9269;50.838;12.094;2023-01-01T01:12:38;16.40;55.60
18287;DHT22;9269;50.838;12.094;2023-01-01T01:15:16;16.40;56.30
18287;DHT22;9269;50.838;12.094;2023-01-01T01:18:02;16.30;55.80
18287;DHT22;9269;50.838;12.094;2023-01-01T01:20:54;16.30;55.50
18287;DHT22;9269;50.838;12.094;2023-01-01T01:23:45;16.40;55.80
18287;DHT22;9269;50.838;12.094;2023-01-01T01:26:39;16.30;56.00
18287;DHT22;9269;50.838;12.094;2023-01-01T01:29:25;16.30;56.00
18287;DHT22;9269;50.838;12.094;2023-01-01T01:32:18;16.30;55.50
18287;DHT22;9269;50.838;12.094;2023-01-01T01:35:15;16.30;55.80
18287;DHT22;9269;50.838;12.094;2023-01-01T01:38:09;16.30;56.00
18287;DHT22;9269;50.838;12.094;2023-01-01T01:41:11;16.30;55.60
18287;DHT22;9269;50.838;12.094;2023-01-01T01:44:05;16.30;55.70
18287;DHT22;9269;50.838;12.094;2023-01-01T01:46:44;16.30;55.40
18287;DHT22;9269;50.838;12.094;2023-01-01T01:49:36;16.20;55.70
18287;DHT22;9269;50.838;12.094;2023-01-01T01:52:20;16.30;55.60
18287;DHT22;9269;50.838;12.094;2023-01-01T01:55:04;16.20;55.50
18287;DHT22;9269;50.838;12.094;2023-01-01T01:57:45;16.10;55.30
18287;DHT22;9269;50.838;12.094;2023-01-01T02:00:36;16.10;55.30
18287;DHT22;9269;50.838;12.094;2023-01-01T02:03:30;16.20;55.20
18287;DHT22;9269;50.838;12.094;2023-01-01T02:09:17;16.20;55.20
18287;DHT22;9269;50.838;12.094;2023-01-01T02:12:12;16.10;55.20
18287;DHT22;9269;50.838;12.094;2023-01-01T02:14:54;16.10;55.10
18287;DHT22;9269;50.838;12.094;2023-01-01T02:17:58;16.10;55.20
18287;DHT22;9269;50.838;12.094;2023-01-01T02:20:52;16.10;55.00
18287;DHT22;9269;50.838;12.094;2023-01-01T02:23:53;16.10;55.20
18287;DHT22;9269;50.838;12.094;2023-01-01T02:30:04;16.10;55.10
18287;DHT22;9269;50.838;12.094;2023-01-01T02:32:46;16.00;55.10
18287;DHT22;9269;50.838;12.094;2023-01-01T02:35:53;16.10;54.70
18287;DHT22;9269;50.838;12.094;2023-01-01T02:38:33;16.00;54.80
18287;DHT22;9269;50.838;12.094;2023-01-01T02:41:38;16.10;54.60
18287;DHT22;9269;50.838;12.094;2023-01-01T02:44:40;16.10;54.70
18287;DHT22;9269;50.838;12.094;2023-01-01T02:47:25;16.00;54.80
18287;DHT22;9269;50.838;12.094;2023-01-01T02:50:13;16.00;54.80
18287;DHT22;9269;50.838;12.094;2023-01-01T02:53:13;16.10;54.80
18287;DHT22;9269;50.838;12.094;2023-01-01T02:56:10;16.10;54.10
18287;DHT22;9269;50.838;12.094;2023-01-01T02:58:57;16.10;54.40
18287;DHT22;9269;50.838;12.094;2023-01-01T03:01:59;16.10;54.20
18287;DHT22;9269;50.838;12.094;2023-01-01T03:04:52;16.00;54.50
18287;DHT22;9269;50.838;12.094;2023-01-01T03:07:41;16.00;54.00
18287;DHT22;9269;50.838;12.094;2023-01-01T03:10:38;16.10;54.20
18287;DHT22;9269;50.838;12.094;2023-01-01T03:13:34;16.10;53.90
18287;DHT22;9269;50.838;12.094;2023-01-01T03:16:29;16.10;54.40
18287;DHT22;9269;50.838;12.094;2023-01-01T03:19:16;16.00;54.10
18287;DHT22;9269;50.838;12.094;2023-01-01T03:22:19;16.10;53.80
18287;DHT22;9269;50.838;12.094;2023-01-01T03:24:59;16.10;54.00
18287;DHT22;9269;50.838;12.094;2023-01-01T03:27:40;16.00;53.90
18287;DHT22;9269;50.838;12.094;2023-01-01T03:30:20;16.10;53.70
18287;DHT22;9269;50.838;12.094;2023-01-01T03:33:03;16.00;53.60
18287;DHT22;9269;50.838;12.094;2023-01-01T03:35:53;16.00;53.80
18287;DHT22;9269;50.838;12.094;2023-01-01T03:38:53;16.00;53.60
18287;DHT22;9269;50.838;12.094;2023-01-01T03:41:53;16.00;53.80
18287;DHT22;9269;50.838;12.094;2023-01-01T03:44:51;15.90;53.90
18287;DHT22;9269;50.838;12.094;2023-01-01T03:47:30;15.90;53.90
18287;DHT22;9269;50.838;12.094;2023-01-01T03:50:37;15.90;54.00
18287;DHT22;9269;50.838;12.094;2023-01-01T03:53:24;15.90;54.20
18287;DHT22;9269;50.838;12.094;2023-01-01T03:56:12;15.80;54.30
18287;DHT22;9269;50.838;12.094;2023-01-01T03:58:49;15.90;54.30
18287;DHT22;9269;50.838;12.094;2023-01-01T04:01:32;15.90;54.40
18287;DHT22;9269;50.838;12.094;2023-01-01T04:04:05;15.80;54.70
18287;DHT22;9269;50.838;12.094;2023-01-01T04:06:38;15.80;54.80
18287;DHT22;9269;50.838;12.094;2023-01-01T04:09:16;15.80;54.70
18287;DHT22;9269;50.838;12.094;2023-01-01T04:11:52;15.80;54.60
18287;DHT22;9269;50.838;12.094;2023-01-01T04:14:35;15.80;54.10
18287;DHT22;9269;50.838;12.094;2023-01-01T04:17:07;15.80;54.50
18287;DHT22;9269;50.838;12.094;2023-01-01T04:19:38;15.70;54.60
18287;DHT22;9269;50.838;12.094;2023-01-01T04:22:13;15.80;55.00
18287;DHT22;9269;50.838;12.094;2023-01-01T04:24:43;15.80;54.60
18287;DHT22;9269;50.838;12.094;2023-01-01T04:27:18;15.80;54.70
18287;DHT22;9269;50.838;12.094;2023-01-01T04:29:52;15.80;54.80
18287;DHT22;9269;50.838;12.094;2023-01-01T04:32:24;15.70;54.30
18287;DHT22;9269;50.838;12.094;2023-01-01T04:34:58;15.70;54.50
18287;DHT22;9269;50.838;12.094;2023-01-01T04:37:30;15.70;54.70
18287;DHT22;9269;50.838;12.094;2023-01-01T04:40:06;15.70;54.60
18287;DHT22;9269;50.838;12.094;2023-01-01T04:42:41;15.70;54.80
18287;DHT22;9269;50.838;12.094;2023-01-01T04:45:11;15.70;54.80
18287;DHT22;9269;50.838;12.094;2023-01-01T04:47:46;15.70;54.60
18287;DHT22;9269;50.838;12.094;2023-01-01T04:50:18;15.70;54.40
18287;DHT22;9269;50.838;12.094;2023-01-01T04:52:52;15.80;54.60
18287;DHT22;9269;50.838;12.094;2023-01-01T04:55:32;15.80;54.20
18287;DHT22;9269;50.838;12.094;2023-01-01T04:58:12;15.80;54.50
18287;DHT22;9269;50.838;12.094;2023-01-01T05:00:48;15.70;54.40
18287;DHT22;9269;50.838;12.094;2023-01-01T05:03:19;15.60;54.20
18287;DHT22;9269;50.838;12.094;2023-01-01T05:06:00;15.60;54.30
18287;DHT22;9269;50.838;12.094;2023-01-01T05:08:30;15.60;54.60
18287;DHT22;9269;50.838;12.094;2023-01-01T05:11:04;15.60;54.40
18287;DHT22;9269;50.838;12.094;2023-01-01T05:13:41;15.60;54.50
18287;DHT22;9269;50.838;12.094;2023-01-01T05:16:13;15.70;54.40
18287;DHT22;9269;50.838;12.094;2023-01-01T05:18:45;15.60;54.70
18287;DHT22;9269;50.838;12.094;2023-01-01T05:21:20;15.50;54.80
18287;DHT22;9269;50.838;12.094;2023-01-01T05:23:53;15.60;54.60
18287;DHT22;9269;50.838;12.094;2023-01-01T05:26:27;15.60;54.60
18287;DHT22;9269;50.838;12.094;2023-01-01T05:29:03;15.60;54.50
18287;DHT22;9269;50.838;12.094;2023-01-01T05:31:45;15.60;54.70
18287;DHT22;9269;50.838;12.094;2023-01-01T05:34:20;15.50;55.00
18287;DHT22;9269;50.838;12.094;2023-01-01T05:36:50;15.60;54.60
18287;DHT22;9269;50.838;12.094;2023-01-01T05:39:23;15.60;54.90
18287;DHT22;9269;50.838;12.094;2023-01-01T05:41:52;15.60;54.60
18287;DHT22;9269;50.838;12.094;2023-01-01T05:44:25;15.60;54.90
18287;DHT22;9269;50.838;12.094;2023-01-01T05:46:57;15.50;54.50
18287;DHT22;9269;50.838;12.094;2023-01-01T05:49:30;15.50;55.00
18287;DHT22;9269;50.838;12.094;2023-01-01T05:52:04;15.50;54.50
18287;DHT22;9269;50.838;12.094;2023-01-01T05:54:34;15.60;54.80
18287;DHT22;9269;50.838;12.094;2023-01-01T05:57:03;15.60;54.70
18287;DHT22;9269;50.838;12.094;2023-01-01T05:59:40;15.50;55.00
18287;DHT22;9269;50.838;12.094;2023-01-01T06:02:14;15.60;55.00
18287;DHT22;9269;50.838;12.094;2023-01-01T06:04:46;15.60;55.00
18287;DHT22;9269;50.838;12.094;2023-01-01T06:07:20;15.60;54.90
18287;DHT22;9269;50.838;12.094;2023-01-01T06:09:52;15.60;54.60
18287;DHT22;9269;50.838;12.094;2023-01-01T06:12:24;15.60;55.20
18287;DHT22;9269;50.838;12.094;2023-01-01T06:15:06;15.60;55.20
18287;DHT22;9269;50.838;12.094;2023-01-01T06:17:39;15.60;55.10
18287;DHT22;9269;50.838;12.094;2023-01-01T06:20:16;15.60;54.80
18287;DHT22;9269;50.838;12.094;2023-01-01T06:22:48;15.60;54.70
18287;DHT22;9269;50.838;12.094;2023-01-01T06:25:20;15.60;54.90
18287;DHT22;9269;50.838;12.094;2023-01-01T06:27:55;15.60;54.60
18287;DHT22;9269;50.838;12.094;2023-01-01T06:30:30;15.60;54.80
18287;DHT22;9269;50.838;12.094;2023-01-01T06:33:04;15.60;54.90
18287;DHT22;9269;50.838;12.094;2023-01-01T06:35:36;15.60;55.00
18287;DHT22;9269;50.838;12.094;2023-01-01T06:38:14;15.50;55.00
18287;DHT22;9269;50.838;12.094;2023-01-01T06:40:54;15.60;54.80
18287;DHT22;9269;50.838;12.094;2023-01-01T06:43:29;15.50;55.20
18287;DHT22;9269;50.838;12.094;2023-01-01T06:46:18;15.60;54.90
18287;DHT22;9269;50.838;12.094;2023-01-01T06:48:54;15.50;55.00
18287;DHT22;9269;50.838;12.094;2023-01-01T06:51:31;15.50;54.80
18287;DHT22;9269;50.838;12.094;2023-01-01T06:54:08;15.50;54.70
18287;DHT22;9269;50.838;12.094;2023-01-01T06:56:39;15.60;54.50
18287;DHT22;9269;50.838;12.094;2023-01-01T06:59:13;15.60;54.70
18287;DHT22;9269;50.838;12.094;2023-01-01T07:01:45;15.50;54.50
18287;DHT22;9269;50.838;12.094;2023-01-01T07:04:15;15.60;54.80
18287;DHT22;9269;50.838;12.094;2023-01-01T07:06:51;15.60;54.70
18287;DHT22;9269;50.838;12.094;2023-01-01T07:09:24;15.60;54.90
18287;DHT22;9269;50.838;12.094;2023-01-01T07:12:01;15.60;54.30
18287;DHT22;9269;50.838;12.094;2023-01-01T07:14:33;15.60;54.60
18287;DHT22;9269;50.838;12.094;2023-01-01T07:17:16;15.50;54.70
18287;DHT22;9269;50.838;12.094;2023-01-01T07:19:48;15.60;54.10
18287;DHT22;9269;50.838;12.094;2023-01-01T07:22:19;15.50;54.60
18287;DHT22;9269;50.838;12.094;2023-01-01T07:24:49;15.50;54.10
18287;DHT22;9269;50.838;12.094;2023-01-01T07:27:19;15.50;54.20
18287;DHT22;9269;50.838;12.094;2023-01-01T07:29:54;15.50;54.00
18287;DHT22;9269;50.838;12.094;2023-01-01T07:32:31;15.50;53.90
18287;DHT22;9269;50.838;12.094;2023-01-01T07:35:02;15.60;54.00
18287;DHT22;9269;50.838;12.094;2023-01-01T07:37:34;15.50;54.10
18287;DHT22;9269;50.838;12.094;2023-01-01T07:40:11;15.40;54.10
18287;DHT22;9269;50.838;12.094;2023-01-01T07:42:50;15.40;55.50
18287;DHT22;9269;50.838;12.094;2023-01-01T07:45:21;15.50;54.10
18287;DHT22;9269;50.838;12.094;2023-01-01T07:47:57;15.40;54.60
18287;DHT22;9269;50.838;12.094;2023-01-01T07:50:31;15.50;54.60
18287;DHT22;9269;50.838;12.094;2023-01-01T07:53:11;15.50;54.50
18287;DHT22;9269;50.838;12.094;2023-01-01T07:55:45;15.50;54.80
18287;DHT22;9269;50.838;12.094;2023-01-01T07:58:19;15.50;54.40
18287;DHT22;9269;50.838;12.094;2023-01-01T08:00:56;15.50;54.60
18287;DHT22;9269;50.838;12.094;2023-01-01T08:03:32;15.50;54.40
18287;DHT22;9269;50.838;12.094;2023-01-01T08:06:06;15.50;54.10
18287;DHT22;9269;50.838;12.094;2023-01-01T08:08:36;15.40;53.60
18287;DHT22;9269;50.838;12.094;2023-01-01T08:11:05;15.60;54.00
18287;DHT22;9269;50.838;12.094;2023-01-01T08:13:38;15.60;53.90
18287;DHT22;9269;50.838;12.094;2023-01-01T08:16:18;15.50;53.90
18287;DHT22;9269;50.838;12.094;2023-01-01T08:18:50;15.60;53.60
18287;DHT22;9269;50.838;12.094;2023-01-01T08:21:22;15.70;53.50
18287;DHT22;9269;50.838;12.094;2023-01-01T08:23:57;15.60;53.40
18287;DHT22;9269;50.838;12.094;2023-01-01T08:26:33;15.70;53.50
18287;DHT22;9269;50.838;12.094;2023-01-01T08:29:19;15.70;53.40
18287;DHT22;9269;50.838;12.094;2023-01-01T08:31:58;15.60;53.50
18287;DHT22;9269;50.838;12.094;2023-01-01T08:34:31;15.70;53.00
18287;DHT22;9269;50.838;12.094;2023-01-01T08:37:05;15.70;53.30
18287;DHT22;9269;50.838;12.094;2023-01-01T08:39:35;15.70;53.10
18287;DHT22;9269;50.838;12.094;2023-01-01T08:42:09;15.70;53.30
18287;DHT22;9269;50.838;12.094;2023-01-01T08:44:46;15.70;53.30
18287;DHT22;9269;50.838;12.094;2023-01-01T08:47:20;15.80;52.90
18287;DHT22;9269;50.838;12.094;2023-01-01T08:49:55;15.70;53.00
18287;DHT22;9269;50.838;12.094;2023-01-01T08:52:30;15.80;53.00
18287;DHT22;9269;50.838;12.094;2023-01-01T08:55:03;15.80;52.90
18287;DHT22;9269;50.838;12.094;2023-01-01T08:57:38;15.80;52.60
18287;DHT22;9269;50.838;12.094;2023-01-01T09:00:13;15.90;52.70
18287;DHT22;9269;50.838;12.094;2023-01-01T09:02:53;15.80;52.80
18287;DHT22;9269;50.838;12.094;2023-01-01T09:05:26;16.00;52.50
18287;DHT22;9269;50.838;12.094;2023-01-01T09:07:58;16.00;52.70
18287;DHT22;9269;50.838;12.094;2023-01-01T09:10:29;15.90;52.50
18287;DHT22;9269;50.838;12.094;2023-01-01T09:13:08;16.00;52.60
18287;DHT22;9269;50.838;12.094;2023-01-01T09:15:39;16.00;52.50
18287;DHT22;9269;50.838;12.094;2023-01-01T09:18:11;16.00;52.30
18287;DHT22;9269;50.838;12.094;2023-01-01T09:20:42;16.10;52.20
18287;DHT22;9269;50.838;12.094;2023-01-01T09:23:18;16.10;52.10
18287;DHT22;9269;50.838;12.094;2023-01-01T09:26:01;16.20;51.50
18287;DHT22;9269;50.838;12.094;2023-01-01T09:28:32;16.10;51.50
18287;DHT22;9269;50.838;12.094;2023-01-01T09:31:06;16.10;51.30
18287;DHT22;9269;50.838;12.094;2023-01-01T09:33:45;16.20;51.20
18287;DHT22;9269;50.838;12.094;2023-01-01T09:36:29;16.30;51.10
18287;DHT22;9269;50.838;12.094;2023-01-01T09:39:11;16.30;50.80
18287;DHT22;9269;50.838;12.094;2023-01-01T09:41:56;16.50;50.70
18287;DHT22;9269;50.838;12.094;2023-01-01T09:44:52;16.60;50.30
18287;DHT22;9269;50.838;12.094;2023-01-01T09:47:28;16.60;50.20
18287;DHT22;9269;50.838;12.094;2023-01-01T09:50:06;16.50;50.30
18287;DHT22;9269;50.838;12.094;2023-01-01T09:52:50;16.60;50.10
18287;DHT22;9269;50.838;12.094;2023-01-01T09:55:36;16.60;50.20
18287;DHT22;9269;50.838;12.094;2023-01-01T09:58:11;16.60;50.10
18287;DHT22;9269;50.838;12.094;2023-01-01T10:00:51;16.60;50.00
18287;DHT22;9269;50.838;12.094;2023-01-01T10:03:33;16.60;49.70
18287;DHT22;9269;50.838;12.094;2023-01-01T10:06:18;16.60;49.30
18287;DHT22;9269;50.838;12.094;2023-01-01T10:09:08;16.70;49.20
18287;DHT22;9269;50.838;12.094;2023-01-01T10:11:49;16.70;49.20
18287;DHT22;9269;50.838;12.094;2023-01-01T10:14:29;16.70;48.80
18287;DHT22;9269;50.838;12.094;2023-01-01T10:17:11;16.90;48.70
18287;DHT22;9269;50.838;12.094;2023-01-01T10:19:53;16.90;48.40
18287;DHT22;9269;50.838;12.094;2023-01-01T10:22:41;16.90;48.60
18287;DHT22;9269;50.838;12.094;2023-01-01T10:25:22;17.00;48.00
18287;DHT22;9269;50.838;12.094;2023-01-01T10:27:58;17.00;47.60
18287;DHT22;9269;50.838;12.094;2023-01-01T10:30:31;17.10;47.90
18287;DHT22;9269;50.838;12.094;2023-01-01T10:33:08;17.10;47.70
18287;DHT22;9269;50.838;12.094;2023-01-01T10:35:54;17.10;47.60
18287;DHT22;9269;50.838;12.094;2023-01-01T10:38:34;17.20;47.60
18287;DHT22;9269;50.838;12.094;2023-01-01T10:41:12;17.30;47.40
18287;DHT22;9269;50.838;12.094;2023-01-01T10:43:58;17.30;46.60
18287;DHT22;9269;50.838;12.094;2023-01-01T10:46:35;17.30;46.80
18287;DHT22;9269;50.838;12.094;2023-01-01T10:49:13;17.30;46.50
18287;DHT22;9269;50.838;12.094;2023-01-01T10:51:45;17.40;45.70
18287;DHT22;9269;50.838;12.094;2023-01-01T10:54:32;17.40;46.10
18287;DHT22;9269;50.838;12.094;2023-01-01T10:57:15;17.50;45.70
18287;DHT22;9269;50.838;12.094;2023-01-01T10:59:52;17.40;45.80
18287;DHT22;9269;50.838;12.094;2023-01-01T11:02:25;17.50;45.90
18287;DHT22;9269;50.838;12.094;2023-01-01T11:05:13;17.50;45.90
18287;DHT22;9269;50.838;12.094;2023-01-01T11:07:55;17.50;45.40
18287;DHT22;9269;50.838;12.094;2023-01-01T11:10:26;17.70;46.10
18287;DHT22;9269;50.838;12.094;2023-01-01T11:13:14;17.60;45.80
18287;DHT22;9269;50.838;12.094;2023-01-01T11:15:51;17.70;45.50
18287;DHT22;9269;50.838;12.094;2023-01-01T11:18:30;17.70;45.20
18287;DHT22;9269;50.838;12.094;2023-01-01T11:21:20;17.70;45.10
18287;DHT22;9269;50.838;12.094;2023-01-01T11:24:15;17.80;45.20
18287;DHT22;9269;50.838;12.094;2023-01-01T11:26:52;17.80;45.30
18287;DHT22;9269;50.838;12.094;2023-01-01T11:29:28;17.70;45.00
18287;DHT22;9269;50.838;12.094;2023-01-01T11:32:06;17.90;44.80
18287;DHT22;9269;50.838;12.094;2023-01-01T11:34:48;17.90;45.00
18287;DHT22;9269;50.838;12.094;2023-01-01T11:37:25;17.90;44.70
18287;DHT22;9269;50.838;12.094;2023-01-01T11:40:05;17.90;44.30
18287;DHT22;9269;50.838;12.094;2023-01-01T11:42:53;17.90;44.50
18287;DHT22;9269;50.838;12.094;2023-01-01T11:45:33;17.90;44.00
18287;DHT22;9269;50.838;12.094;2023-01-01T11:48:15;17.90;44.70
18287;DHT22;9269;50.838;12.094;2023-01-01T11:50:51;18.00;44.80
18287;DHT22;9269;50.838;12.094;2023-01-01T11:53:28;17.90;44.40
18287;DHT22;9269;50.838;12.094;2023-01-01T11:56:08;17.90;44.30
18287;DHT22;9269;50.838;12.094;2023-01-01T11:58:49;17.90;44.40
18287;DHT22;9269;50.838;12.094;2023-01-01T12:01:34;18.00;44.20
18287;DHT22;9269;50.838;12.094;2023-01-01T12:04:18;18.00;44.30
18287;DHT22;9269;50.838;12.094;2023-01-01T12:06:58;18.00;44.30
18287;DHT22;9269;50.838;12.094;2023-01-01T12:09:39;17.90;44.70
18287;DHT22;9269;50.838;12.094;2023-01-01T12:12:25;18.00;44.60
18287;DHT22;9269;50.838;12.094;2023-01-01T12:15:02;18.00;45.00
18287;DHT22;9269;50.838;12.094;2023-01-01T12:17:48;18.10;44.60
18287;DHT22;9269;50.838;12.094;2023-01-01T12:20:28;18.10;44.50
18287;DHT22;9269;50.838;12.094;2023-01-01T12:23:15;18.10;44.90
18287;DHT22;9269;50.838;12.094;2023-01-01T12:26:02;18.20;43.50
18287;DHT22;9269;50.838;12.094;2023-01-01T12:29:14;18.20;43.00
18287;DHT22;9269;50.838;12.094;2023-01-01T12:31:59;18.20;43.50
18287;DHT22;9269;50.838;12.094;2023-01-01T12:34:40;18.20;43.30
18287;DHT22;9269;50.838;12.094;2023-01-01T12:37:25;18.10;44.30
18287;DHT22;9269;50.838;12.094;2023-01-01T12:40:46;18.20;43.30
18287;DHT22;9269;50.838;12.094;2023-01-01T12:43:33;18.20;43.30
18287;DHT22;9269;50.838;12.094;2023-01-01T12:46:41;18.20;43.10
18287;DHT22;9269;50.838;12.094;2023-01-01T12:49:41;18.20;43.10
18287;DHT22;9269;50.838;12.094;2023-01-01T12:52:23;18.10;44.20
18287;DHT22;9269;50.838;12.094;2023-01-01T12:55:21;18.20;42.60
18287;DHT22;9269;50.838;12.094;2023-01-01T12:58:03;18.10;43.80
18287;DHT22;9269;50.838;12.094;2023-01-01T13:00:52;18.10;44.10
18287;DHT22;9269;50.838;12.094;2023-01-01T13:03:29;18.10;44.00
18287;DHT22;9269;50.838;12.094;2023-01-01T13:06:02;18.10;44.20
18287;DHT22;9269;50.838;12.094;2023-01-01T13:08:34;18.10;44.20
18287;DHT22;9269;50.838;12.094;2023-01-01T13:11:10;18.10;44.20
18287;DHT22;9269;50.838;12.094;2023-01-01T13:13:54;18.10;44.00
18287;DHT22;9269;50.838;12.094;2023-01-01T13:16:35;18.10;44.20
18287;DHT22;9269;50.838;12.094;2023-01-01T13:19:26;18.20;42.50
18287;DHT22;9269;50.838;12.094;2023-01-01T13:22:37;18.20;42.40
18287;DHT22;9269;50.838;12.094;2023-01-01T13:25:21;18.10;44.30
18287;DHT22;9269;50.838;12.094;2023-01-01T13:28:04;18.10;44.00
18287;DHT22;9269;50.838;12.094;2023-01-01T13:30:50;18.10;43.60
18287;DHT22;9269;50.838;12.094;2023-01-01T13:33:29;18.00;43.90
18287;DHT22;9269;50.838;12.094;2023-01-01T13:36:29;18.00;43.70
18287;DHT22;9269;50.838;12.094;2023-01-01T13:39:52;18.00;44.00
18287;DHT22;9269;50.838;12.094;2023-01-01T13:42:41;18.00;44.40
18287;DHT22;9269;50.838;12.094;2023-01-01T13:45:33;18.10;45.10
18287;DHT22;9269;50.838;12.094;2023-01-01T13:49:10;18.00;44.70
18287;DHT22;9269;50.838;12.094;2023-01-01T13:52:00;18.00;44.10
18287;DHT22;9269;50.838;12.094;2023-01-01T14:01:48;18.00;44.60
18287;DHT22;9269;50.838;12.094;2023-01-01T14:04:38;18.00;44.50
18287;DHT22;9269;50.838;12.094;2023-01-01T14:07:28;18.00;44.60
18287;DHT22;9269;50.838;12.094;2023-01-01T14:10:25;17.90;44.50
18287;DHT22;9269;50.838;12.094;2023-01-01T14:13:15;17.80;45.20
18287;DHT22;9269;50.838;12.094;2023-01-01T14:15:53;17.80;45.00
18287;DHT22;9269;50.838;12.094;2023-01-01T14:18:31;17.80;44.90
18287;DHT22;9269;50.838;12.094;2023-01-01T14:21:21;17.90;45.10
18287;DHT22;9269;50.838;12.094;2023-01-01T14:23:58;17.70;45.20
18287;DHT22;9269;50.838;12.094;2023-01-01T14:26:36;17.80;45.60
18287;DHT22;9269;50.838;12.094;2023-01-01T14:29:22;17.80;45.70
18287;DHT22;9269;50.838;12.094;2023-01-01T14:32:13;17.60;45.70
18287;DHT22;9269;50.838;12.094;2023-01-01T14:34:48;17.70;46.00
18287;DHT22;9269;50.838;12.094;2023-01-01T14:37:41;17.60;45.80
18287;DHT22;9269;50.838;12.094;2023-01-01T14:40:24;17.70;45.90
18287;DHT22;9269;50.838;12.094;2023-01-01T14:43:10;17.60;45.70
18287;DHT22;9269;50.838;12.094;2023-01-01T14:45:54;17.70;45.50
18287;DHT22;9269;50.838;12.094;2023-01-01T14:48:30;17.50;45.60
18287;DHT22;9269;50.838;12.094;2023-01-01T14:51:12;17.40;45.50
18287;DHT22;9269;50.838;12.094;2023-01-01T14:53:47;17.60;45.60
18287;DHT22;9269;50.838;12.094;2023-01-01T14:56:22;17.50;45.80
18287;DHT22;9269;50.838;12.094;2023-01-01T14:59:03;17.40;45.30
18287;DHT22;9269;50.838;12.094;2023-01-01T15:01:40;17.50;45.50
18287;DHT22;9269;50.838;12.094;2023-01-01T15:04:22;17.40;45.70
18287;DHT22;9269;50.838;12.094;2023-01-01T15:07:17;17.20;45.70
18287;DHT22;9269;50.838;12.094;2023-01-01T15:09:57;17.20;45.50
18287;DHT22;9269;50.838;12.094;2023-01-01T15:12:31;17.30;45.70
18287;DHT22;9269;50.838;12.094;2023-01-01T15:15:33;17.20;46.40
18287;DHT22;9269;50.838;12.094;2023-01-01T15:18:39;17.10;46.10
18287;DHT22;9269;50.838;12.094;2023-01-01T15:21:32;17.10;46.40
18287;DHT22;9269;50.838;12.094;2023-01-01T15:24:10;17.10;46.30
18287;DHT22;9269;50.838;12.094;2023-01-01T15:26:51;17.00;46.50
18287;DHT22;9269;50.838;12.094;2023-01-01T15:29:28;17.00;46.50
18287;DHT22;9269;50.838;12.094;2023-01-01T15:32:00;16.90;46.20
18287;DHT22;9269;50.838;12.094;2023-01-01T15:34:41;17.00;46.20
18287;DHT22;9269;50.838;12.094;2023-01-01T15:37:16;16.90;46.40
18287;DHT22;9269;50.838;12.094;2023-01-01T15:39:56;16.90;46.30
18287;DHT22;9269;50.838;12.094;2023-01-01T15:42:37;16.80;46.30
18287;DHT22;9269;50.838;12.094;2023-01-01T15:45:19;16.80;46.10
18287;DHT22;9269;50.838;12.094;2023-01-01T15:47:52;16.80;46.10
18287;DHT22;9269;50.838;12.094;2023-01-01T15:50:28;16.80;46.20
18287;DHT22;9269;50.838;12.094;2023-01-01T15:53:09;16.70;46.50
18287;DHT22;9269;50.838;12.094;2023-01-01T15:55:53;16.60;46.50
18287;DHT22;9269;50.838;12.094;2023-01-01T15:58:33;16.70;46.90
18287;DHT22;9269;50.838;12.094;2023-01-01T16:01:21;16.60;47.00
18287;DHT22;9269;50.838;12.094;2023-01-01T16:04:01;16.60;46.50
18287;DHT22;9269;50.838;12.094;2023-01-01T16:06:47;16.50;46.70
18287;DHT22;9269;50.838;12.094;2023-01-01T16:09:26;16.50;47.10
18287;DHT22;9269;50.838;12.094;2023-01-01T16:12:14;16.50;46.90
18287;DHT22;9269;50.838;12.094;2023-01-01T16:14:48;16.40;47.20
18287;DHT22;9269;50.838;12.094;2023-01-01T16:17:29;16.40;47.40
18287;DHT22;9269;50.838;12.094;2023-01-01T16:20:12;16.40;47.40
18287;DHT22;9269;50.838;12.094;2023-01-01T16:22:54;16.40;47.30
18287;DHT22;9269;50.838;12.094;2023-01-01T16:25:39;16.30;47.30
18287;DHT22;9269;50.838;12.094;2023-01-01T16:28:15;16.40;47.90
18287;DHT22;9269;50.838;12.094;2023-01-01T16:30:56;16.30;48.00
18287;DHT22;9269;50.838;12.094;2023-01-01T16:33:32;16.30;48.10
18287;DHT22;9269;50.838;12.094;2023-01-01T16:36:11;16.30;47.90
18287;DHT22;9269;50.838;12.094;2023-01-01T16:38:42;16.30;48.40
18287;DHT22;9269;50.838;12.094;2023-01-01T16:41:18;16.30;47.90
18287;DHT22;9269;50.838;12.094;2023-01-01T16:43:57;16.30;47.80
18287;DHT22;9269;50.838;12.094;2023-01-01T16:46:28;16.30;48.30
18287;DHT22;9269;50.838;12.094;2023-01-01T16:49:09;16.30;47.90
18287;DHT22;9269;50.838;12.094;2023-01-01T16:51:46;16.30;48.10
18287;DHT22;9269;50.838;12.094;2023-01-01T16:54:16;16.30;47.80
18287;DHT22;9269;50.838;12.094;2023-01-01T16:56:44;16.30;48.20
18287;DHT22;9269;50.838;12.094;2023-01-01T16:59:13;16.30;47.90
18287;DHT22;9269;50.838;12.094;2023-01-01T17:01:41;16.30;48.40
18287;DHT22;9269;50.838;12.094;2023-01-01T17:04:11;16.30;47.70
18287;DHT22;9269;50.838;12.094;2023-01-01T17:06:39;16.30;48.20
18287;DHT22;9269;50.838;12.094;2023-01-01T17:09:08;16.30;47.90
18287;DHT22;9269;50.838;12.094;2023-01-01T17:11:37;16.20;47.90
18287;DHT22;9269;50.838;12.094;2023-01-01T17:14:07;16.30;48.10
18287;DHT22;9269;50.838;12.094;2023-01-01T17:16:36;16.30;47.90